Time;durP1;ratioP1;P1;durP2;ratioP2;P2;SDS_P1;SDS_P2;PMS_P1;PMS_P2;Temp;Humidity;BMP_temperature;BMP_pressure;BME280_temperature;BME280_humidity;BME280_pressure;Samples;Min_cycle;Max_cycle;Signal;HPM_P1;HPM_P2
2022/04/04 00:01:59;;;;;;;14.23;4.90;;;7.90;55.50;;;;;;5032843;28;20227;-91
2022/04/04 00:04:27;;;;;;;11.33;3.97;;;7.90;55.10;;;;;;5037070;28;20750;-92
2022/04/04 00:06:59;;;;;;;17.53;5.50;;;7.90;55.50;;;;;;5035353;28;21809;-92
2022/04/04 00:09:26;;;;;;;12.63;4.57;;;7.90;55.40;;;;;;5035301;28;20205;-96
2022/04/04 00:11:54;;;;;;;10.80;3.93;;;7.90;55.50;;;;;;5031677;28;20208;-95
2022/04/04 00:14:24;;;;;;;6.80;3.27;;;7.80;55.40;;;;;;5035341;28;20204;-93
2022/04/04 00:16:53;;;;;;;10.23;4.03;;;7.80;55.40;;;;;;5035166;28;20294;-90
2022/04/04 00:19:22;;;;;;;12.50;4.50;;;7.80;55.50;;;;;;5033546;28;20296;-94
2022/04/04 00:21:50;;;;;;;10.97;4.23;;;7.80;55.90;;;;;;5019180;28;20283;-91
2022/04/04 00:24:20;;;;;;;10.87;3.93;;;7.80;55.90;;;;;;5032749;28;20614;-92
2022/04/04 00:26:50;;;;;;;14.80;4.77;;;7.80;56.00;;;;;;5034751;28;20197;-96
2022/04/04 00:29:30;;;;;;;8.40;3.83;;;7.80;56.00;;;;;;5038415;28;20298;-91
2022/04/04 00:31:57;;;;;;;7.93;3.70;;;7.80;56.30;;;;;;5037031;28;20707;-94
2022/04/04 00:34:28;;;;;;;9.60;3.80;;;7.80;56.10;;;;;;5036045;28;20267;-93
2022/04/04 00:36:56;;;;;;;9.50;3.63;;;7.80;56.00;;;;;;5036832;28;20199;-91
2022/04/04 00:39:26;;;;;;;9.37;3.60;;;7.80;56.10;;;;;;5035048;28;20229;-93
2022/04/04 00:41:58;;;;;;;13.40;4.50;;;7.80;56.00;;;;;;5035139;28;20735;-92
2022/04/04 00:44:27;;;;;;;10.50;4.23;;;7.80;56.60;;;;;;5033651;28;20234;-92
2022/04/04 00:46:55;;;;;;;8.47;3.67;;;7.80;56.60;;;;;;5032385;28;20204;-95
2022/04/04 00:49:24;;;;;;;13.50;4.90;;;7.80;56.30;;;;;;5034134;28;20800;-92
2022/04/04 00:51:55;;;;;;;24.10;6.93;;;7.70;56.40;;;;;;5030274;28;20217;-92
2022/04/04 00:54:26;;;;;;;11.73;4.27;;;7.70;56.70;;;;;;5029913;28;20209;-91
2022/04/04 00:56:55;;;;;;;12.70;4.73;;;7.70;56.90;;;;;;5032677;28;20216;-93
2022/04/04 00:59:25;;;;;;;18.60;6.13;;;7.70;56.90;;;;;;5032402;28;20300;-93
2022/04/04 01:01:58;;;;;;;9.23;3.77;;;7.70;57.00;;;;;;5019601;28;20294;-91
2022/04/04 01:04:27;;;;;;;11.03;4.23;;;7.70;57.10;;;;;;5032895;28;20252;-92
2022/04/04 01:06:56;;;;;;;12.33;5.10;;;7.70;57.20;;;;;;5026206;28;20212;-93
2022/04/04 01:09:23;;;;;;;12.77;4.80;;;7.70;57.50;;;;;;5021627;28;20223;-93
2022/04/04 01:12:02;;;;;;;16.20;5.47;;;7.70;57.60;;;;;;5030593;28;20295;-91
2022/04/04 01:14:30;;;;;;;13.37;5.10;;;7.60;57.80;;;;;;5032712;28;20274;-93
2022/04/04 01:16:59;;;;;;;12.50;4.63;;;7.60;57.70;;;;;;5031606;28;20207;-92
2022/04/04 01:19:30;;;;;;;24.03;7.23;;;7.60;57.60;;;;;;5032687;28;20974;-93
2022/04/04 01:21:58;;;;;;;9.80;4.07;;;7.60;57.50;;;;;;5032849;28;20235;-92
2022/04/04 01:24:27;;;;;;;14.53;4.80;;;7.60;57.80;;;;;;5032980;28;20643;-92
2022/04/04 01:26:56;;;;;;;14.70;4.47;;;7.60;58.00;;;;;;5032181;28;20205;-96
2022/04/04 01:29:24;;;;;;;13.27;4.77;;;7.60;58.20;;;;;;5033406;28;20207;-92
2022/04/04 01:31:52;;;;;;;12.27;4.77;;;7.60;58.50;;;;;;5032290;28;20203;-96
2022/04/04 01:34:23;;;;;;;10.27;4.37;;;7.50;58.40;;;;;;5033461;28;20216;-93
2022/04/04 01:36:52;;;;;;;11.60;4.27;;;7.50;58.50;;;;;;5032664;28;20224;-93
2022/04/04 01:39:19;;;;;;;12.73;4.70;;;7.60;58.20;;;;;;5033142;28;20225;-93
2022/04/04 01:41:49;;;;;;;11.33;4.53;;;7.50;58.40;;;;;;5031716;28;20219;-93
2022/04/04 01:44:19;;;;;;;11.50;4.70;;;7.50;58.70;;;;;;5032489;28;20224;-90
2022/04/04 01:46:46;;;;;;;11.33;4.43;;;7.50;58.60;;;;;;5029625;28;21072;-96
2022/04/04 01:49:14;;;;;;;9.33;4.20;;;7.50;58.60;;;;;;5031747;28;20222;-92
2022/04/04 01:51:46;;;;;;;12.07;4.60;;;7.50;58.40;;;;;;5030150;28;20209;-93
2022/04/04 01:54:13;;;;;;;12.23;4.80;;;7.40;58.40;;;;;;5028883;28;20219;-93
2022/04/04 01:56:43;;;;;;;12.07;4.87;;;7.50;58.40;;;;;;5031575;28;20272;-95
2022/04/04 01:59:15;;;;;;;11.23;4.33;;;7.40;58.40;;;;;;5031192;28;20970;-94
2022/04/04 02:01:45;;;;;;;13.67;4.97;;;7.50;58.40;;;;;;5024251;28;20243;-93
2022/04/04 02:04:13;;;;;;;8.57;4.10;;;7.40;58.30;;;;;;5030346;28;20232;-92
2022/04/04 02:06:45;;;;;;;12.87;4.57;;;7.50;58.70;;;;;;5029447;28;20225;-91
2022/04/04 02:09:13;;;;;;;15.10;5.80;;;7.40;58.70;;;;;;5030036;28;20219;-96
2022/04/04 02:11:42;;;;;;;15.50;5.03;;;7.50;58.60;;;;;;5033130;28;20204;-94
2022/04/04 02:14:09;;;;;;;13.43;4.67;;;7.40;58.60;;;;;;5032778;28;20223;-91
2022/04/04 02:16:47;;;;;;;13.00;5.13;;;7.40;58.70;;;;;;5034218;28;20204;-93
2022/04/04 02:19:17;;;;;;;17.80;5.70;;;7.40;59.00;;;;;;5031074;28;20203;-94
2022/04/04 02:21:46;;;;;;;13.33;4.87;;;7.40;58.60;;;;;;5038144;28;20247;-93
2022/04/04 02:24:13;;;;;;;23.67;7.77;;;7.40;58.80;;;;;;5017880;28;20709;-91
2022/04/04 02:26:41;;;;;;;13.80;5.20;;;7.40;58.80;;;;;;5033516;28;20303;-94
2022/04/04 02:29:08;;;;;;;16.93;6.13;;;7.40;58.80;;;;;;5036745;28;20264;-93
2022/04/04 02:31:37;;;;;;;12.17;5.20;;;7.40;59.20;;;;;;5036454;28;20205;-94
2022/04/04 02:34:07;;;;;;;11.77;4.43;;;7.30;59.00;;;;;;5019218;28;20210;-96
2022/04/04 02:36:34;;;;;;;13.47;5.20;;;7.30;59.00;;;;;;5031250;28;20648;-93
2022/04/04 02:39:02;;;;;;;18.33;6.30;;;7.30;59.30;;;;;;5040646;28;20231;-95
2022/04/04 02:41:31;;;;;;;15.00;6.03;;;7.30;59.20;;;;;;5038571;28;20211;-95
2022/04/04 02:43:58;;;;;;;14.13;5.30;;;7.30;59.30;;;;;;5034209;28;20288;-94
2022/04/04 02:46:26;;;;;;;19.13;6.83;;;7.30;59.30;;;;;;5040215;28;20205;-91
2022/04/04 02:48:53;;;;;;;15.73;5.33;;;7.30;59.00;;;;;;5038540;28;20210;-96
2022/04/04 02:51:22;;;;;;;9.73;4.90;;;7.30;59.80;;;;;;5034573;28;20208;-94
2022/04/04 02:53:49;;;;;;;13.17;5.30;;;7.30;59.80;;;;;;5036732;28;20260;-94
2022/04/04 02:56:30;;;;;;;13.93;5.43;;;7.30;59.90;;;;;;5036741;28;20663;-91
2022/04/04 02:59:00;;;;;;;11.87;5.20;;;7.20;59.30;;;;;;5029220;28;20211;-91
2022/04/04 03:01:28;;;;;;;12.07;4.77;;;7.30;61.10;;;;;;5027310;28;20218;-92
2022/04/04 03:03:58;;;;;;;12.57;5.33;;;7.20;60.00;;;;;;5034855;28;20235;-93
2022/04/04 03:06:34;;;;;;;13.80;5.07;;;7.30;60.20;;;;;;5036881;28;20201;-92
2022/04/04 03:09:02;;;;;;;18.47;6.60;;;7.30;60.50;;;;;;5035549;28;20217;-92
2022/04/04 03:11:34;;;;;;;17.77;6.87;;;7.30;60.40;;;;;;5032916;28;20212;-93
2022/04/04 03:14:02;;;;;;;11.00;5.07;;;7.30;60.20;;;;;;5035534;28;20205;-93
2022/04/04 03:16:35;;;;;;;11.70;5.30;;;7.30;60.60;;;;;;5036749;28;20217;-94
2022/04/04 03:19:05;;;;;;;14.30;5.87;;;7.30;60.50;;;;;;5038002;28;20211;-95
2022/04/04 03:21:34;;;;;;;14.97;6.13;;;7.30;60.50;;;;;;5035400;28;20204;-92
2022/04/04 03:24:05;;;;;;;12.20;5.27;;;7.30;60.90;;;;;;5035990;28;20221;-96
2022/04/04 03:26:37;;;;;;;15.20;6.67;;;7.40;60.60;;;;;;5035766;28;20557;-92
2022/04/04 03:29:08;;;;;;;14.57;5.83;;;7.40;61.00;;;;;;5035549;28;20216;-93
2022/04/04 03:31:35;;;;;;;15.10;6.00;;;7.40;61.10;;;;;;5037125;28;20204;-92
2022/04/04 03:34:06;;;;;;;20.03;7.03;;;7.40;60.90;;;;;;5036239;28;20255;-93
2022/04/04 03:36:38;;;;;;;19.37;7.07;;;7.50;61.20;;;;;;5036086;28;20209;-96
2022/04/04 03:39:06;;;;;;;14.20;5.57;;;7.50;61.80;;;;;;5039438;28;20234;-93
2022/04/04 03:41:35;;;;;;;13.13;5.57;;;7.50;61.60;;;;;;5039435;28;20270;-96
2022/04/04 03:44:08;;;;;;;13.60;5.70;;;7.50;62.10;;;;;;5042693;28;20229;-95
2022/04/04 03:46:44;;;;;;;10.23;5.43;;;7.60;62.20;;;;;;5037738;28;20272;-95
2022/04/04 03:49:19;;;;;;;15.93;6.57;;;7.50;62.40;;;;;;5039601;28;20559;-92
2022/04/04 03:51:52;;;;;;;9.77;4.83;;;7.50;62.10;;;;;;5038466;28;20216;-93
2022/04/04 03:54:21;;;;;;;13.13;5.20;;;7.60;62.10;;;;;;5032049;28;20204;-92
2022/04/04 03:56:53;;;;;;;10.60;4.87;;;7.60;61.50;;;;;;5036983;28;20224;-94
2022/04/04 03:59:20;;;;;;;13.37;5.63;;;7.60;61.50;;;;;;5030982;28;20200;-91
2022/04/04 04:01:55;;;;;;;13.40;5.47;;;7.60;61.80;;;;;;5037941;28;20207;-93
2022/04/04 04:04:23;;;;;;;15.37;6.07;;;7.60;62.40;;;;;;5035403;28;20650;-92
2022/04/04 04:06:54;;;;;;;13.00;5.23;;;7.70;61.50;;;;;;5035549;28;20573;-93
2022/04/04 04:09:28;;;;;;;14.03;5.83;;;7.60;62.10;;;;;;5037494;28;20750;-93
2022/04/04 04:11:57;;;;;;;11.40;5.90;;;7.70;61.40;;;;;;5039836;28;20270;-93
2022/04/04 04:14:26;;;;;;;11.10;5.07;;;7.70;61.70;;;;;;5038667;28;20209;-94
2022/04/04 04:16:54;;;;;;;9.17;5.03;;;7.70;61.70;;;;;;5039446;28;20304;-92
2022/04/04 04:22:08;;;;;;;16.47;6.50;;;7.80;61.70;;;;;;5030245;28;20227;-95
2022/04/04 04:24:35;;;;;;;8.43;4.83;;;7.80;62.20;;;;;;5024626;28;20271;-94
2022/04/04 04:27:03;;;;;;;13.93;6.30;;;7.80;62.20;;;;;;5034421;28;20642;-96
2022/04/04 04:29:32;;;;;;;13.87;5.63;;;7.80;62.70;;;;;;5036650;28;20556;-96
2022/04/04 04:31:59;;;;;;;16.57;6.53;;;7.90;62.50;;;;;;5036571;28;20210;-95
2022/04/04 04:34:29;;;;;;;12.70;6.13;;;7.90;62.20;;;;;;5036225;28;20620;-96
2022/04/04 04:36:58;;;;;;;13.50;6.17;;;7.90;62.40;;;;;;5024493;28;20209;-96
2022/04/04 04:39:26;;;;;;;23.37;8.13;;;7.90;62.30;;;;;;5038086;28;20232;-95
2022/04/04 04:41:56;;;;;;;14.27;6.33;;;8.00;62.40;;;;;;5036119;28;20209;-94
2022/04/04 04:44:23;;;;;;;16.13;6.63;;;8.00;62.60;;;;;;5034836;28;20235;-95
2022/04/04 04:46:53;;;;;;;14.40;6.30;;;8.00;62.30;;;;;;5020486;28;20200;-94
2022/04/04 04:49:20;;;;;;;13.40;6.73;;;8.10;62.50;;;;;;5022682;28;20201;-93
2022/04/04 04:51:48;;;;;;;12.80;5.70;;;8.10;62.80;;;;;;5033485;28;20290;-96
2022/04/04 04:54:15;;;;;;;16.47;7.70;;;8.10;62.70;;;;;;5035524;28;20841;-91
2022/04/04 04:56:47;;;;;;;14.23;6.70;;;8.20;62.80;;;;;;5035533;28;20283;-96
2022/04/04 04:59:17;;;;;;;15.80;6.60;;;8.20;62.50;;;;;;5034615;28;20207;-92
2022/04/04 05:01:44;;;;;;;15.27;6.63;;;8.20;62.20;;;;;;5032985;28;20684;-92
2022/04/04 05:04:11;;;;;;;16.43;6.77;;;8.30;62.60;;;;;;5025116;28;20219;-91
2022/04/04 05:06:42;;;;;;;16.40;7.50;;;8.30;62.20;;;;;;5037641;28;20209;-95
2022/04/04 05:09:11;;;;;;;12.47;6.23;;;8.30;63.10;;;;;;5024973;28;20209;-96
2022/04/04 05:11:53;;;;;;;14.60;6.73;;;8.30;62.10;;;;;;5035286;28;20199;-93
2022/04/04 05:14:23;;;;;;;13.03;6.50;;;8.30;63.10;;;;;;5034688;28;20268;-96
2022/04/04 05:16:53;;;;;;;14.13;6.70;;;8.30;62.80;;;;;;5035006;28;20261;-94
2022/04/04 05:19:30;;;;;;;16.83;7.63;;;8.40;63.30;;;;;;5045228;28;20228;-94
2022/04/04 05:22:07;;;;;;;12.90;5.87;;;8.40;63.00;;;;;;5027042;28;20259;-92
2022/04/04 05:24:34;;;;;;;11.13;5.33;;;8.40;63.10;;;;;;5036642;28;20752;-91
2022/04/04 05:27:06;;;;;;;12.37;6.33;;;8.40;63.00;;;;;;5034900;28;20221;-92
2022/04/04 05:29:36;;;;;;;21.63;8.70;;;8.40;62.80;;;;;;5042267;28;20189;-96
2022/04/04 05:32:05;;;;;;;11.10;6.50;;;8.40;62.60;;;;;;5037671;28;20193;-95
2022/04/04 05:34:53;;;;;;;10.27;5.50;;;8.40;63.00;;;;;;5044600;28;20203;-95
2022/04/04 05:37:26;;;;;;;12.40;6.37;;;8.40;63.00;;;;;;5035073;28;20193;-93
2022/04/04 05:39:57;;;;;;;12.90;6.10;;;8.50;63.10;;;;;;5039457;28;20288;-95
2022/04/04 05:42:34;;;;;;;12.30;6.00;;;8.50;62.70;;;;;;5048027;28;20212;-94
2022/04/04 05:47:54;;;;;;;13.53;5.90;;;8.50;62.80;;;;;;5027426;28;20208;-93
2022/04/04 05:50:22;;;;;;;13.63;6.53;;;8.60;62.50;;;;;;5027727;28;20208;-92
2022/04/04 05:52:56;;;;;;;10.80;6.63;;;8.60;62.70;;;;;;5040477;28;20253;-90
2022/04/04 05:55:27;;;;;;;12.43;6.87;;;8.60;62.30;;;;;;5020538;28;20227;-93
2022/04/04 05:57:56;;;;;;;14.83;7.10;;;8.60;63.20;;;;;;5045570;28;20193;-91
2022/04/04 06:00:25;;;;;;;12.67;6.17;;;8.70;62.70;;;;;;5035015;28;20205;-96
2022/04/04 06:02:52;;;;;;;21.57;8.87;;;8.70;63.10;;;;;;5028497;28;20200;-95
2022/04/04 06:05:22;;;;;;;18.00;7.73;;;8.60;63.40;;;;;;5024630;28;20321;-94
2022/04/04 06:07:50;;;;;;;20.30;7.87;;;8.70;63.60;;;;;;5027792;28;20208;-93
2022/04/04 06:10:17;;;;;;;20.63;8.20;;;8.70;63.50;;;;;;5020003;28;20278;-93
2022/04/04 06:12:46;;;;;;;12.37;6.73;;;8.70;63.60;;;;;;5026607;28;20272;-94
2022/04/04 06:15:18;;;;;;;23.93;9.53;;;8.70;63.70;;;;;;5025754;28;20211;-94
2022/04/04 06:17:46;;;;;;;17.23;8.00;;;8.70;64.30;;;;;;5025279;28;20205;-95
2022/04/04 06:20:14;;;;;;;19.73;8.70;;;8.70;64.00;;;;;;5026847;28;20224;-93
2022/04/04 06:22:42;;;;;;;32.10;8.03;;;8.70;64.30;;;;;;5026596;28;20291;-96
2022/04/04 06:25:12;;;;;;;16.60;7.10;;;8.70;63.80;;;;;;5025849;28;20227;-94
2022/04/04 06:27:39;;;;;;;13.83;7.20;;;8.70;64.20;;;;;;5029465;28;20262;-94
2022/04/04 06:30:08;;;;;;;21.50;8.30;;;8.70;64.30;;;;;;5026240;28;20634;-95
2022/04/04 06:32:36;;;;;;;16.30;7.37;;;8.80;65.10;;;;;;5032416;28;20212;-91
2022/04/04 06:35:08;;;;;;;14.00;6.97;;;8.70;64.80;;;;;;5031839;28;20639;-95
2022/04/04 06:37:36;;;;;;;15.40;7.40;;;8.80;65.10;;;;;;5028488;28;20290;-95
2022/04/04 06:40:06;;;;;;;10.47;5.57;;;8.80;64.70;;;;;;5024601;28;20202;-94
2022/04/04 06:42:35;;;;;;;13.97;7.10;;;8.80;65.00;;;;;;5032557;28;20204;-96
2022/04/04 06:45:04;;;;;;;13.77;6.47;;;8.80;64.80;;;;;;5043597;28;20247;-93
2022/04/04 06:47:34;;;;;;;10.23;6.00;;;8.80;64.60;;;;;;5047556;28;20335;-96
2022/04/04 06:50:07;;;;;;;11.50;6.33;;;8.90;65.40;;;;;;5048464;28;20207;-91
2022/04/04 06:52:35;;;;;;;11.13;6.57;;;8.90;65.00;;;;;;5049115;28;20255;-92
2022/04/04 06:55:06;;;;;;;9.70;5.80;;;8.90;64.70;;;;;;5043538;28;20180;-93
2022/04/04 06:57:36;;;;;;;10.30;5.20;;;8.90;64.30;;;;;;5045774;28;20204;-96
2022/04/04 07:00:05;;;;;;;11.93;5.97;;;8.90;64.40;;;;;;5044473;28;20201;-95
2022/04/04 07:02:36;;;;;;;9.53;5.50;;;9.00;64.50;;;;;;5047197;28;20218;-94
2022/04/04 07:05:14;;;;;;;13.27;6.30;;;9.00;64.20;;;;;;5040695;28;20295;-95
2022/04/04 07:07:41;;;;;;;13.50;6.53;;;9.10;65.10;;;;;;5045495;28;20228;-93
2022/04/04 07:10:11;;;;;;;9.70;5.77;;;9.10;64.00;;;;;;5044072;28;20197;-95
2022/04/04 07:12:41;;;;;;;9.53;5.73;;;9.20;64.50;;;;;;5044361;28;20269;-96
2022/04/04 07:15:10;;;;;;;8.73;5.13;;;9.20;64.10;;;;;;5045624;28;20214;-96
2022/04/04 07:17:40;;;;;;;9.17;5.17;;;9.20;63.80;;;;;;5043418;28;20256;-93
2022/04/04 07:20:12;;;;;;;9.00;5.40;;;9.30;64.00;;;;;;5050468;28;20260;-90
2022/04/04 07:22:41;;;;;;;15.13;6.90;;;9.30;64.00;;;;;;5050159;28;20205;-95
2022/04/04 07:25:12;;;;;;;9.57;6.30;;;9.40;64.20;;;;;;5052863;28;20257;-92
2022/04/04 07:27:41;;;;;;;10.57;5.47;;;9.40;64.10;;;;;;5053472;28;20283;-94
2022/04/04 07:30:30;;;;;;;12.87;5.80;;;9.50;64.10;;;;;;5052933;28;20195;-92
2022/04/04 07:33:04;;;;;;;7.83;5.30;;;9.50;64.10;;;;;;5049748;28;20709;-91
2022/04/04 07:35:37;;;;;;;12.77;6.73;;;9.50;63.70;;;;;;5042306;28;20205;-93
2022/04/04 07:38:04;;;;;;;11.00;6.00;;;9.50;64.10;;;;;;5045912;28;20228;-96
2022/04/04 07:40:35;;;;;;;16.93;7.13;;;9.60;63.50;;;;;;5044861;28;20236;-94
2022/04/04 07:43:04;;;;;;;12.20;6.03;;;9.60;64.20;;;;;;5047465;28;20215;-93
2022/04/04 07:45:31;;;;;;;16.57;7.10;;;9.60;63.80;;;;;;5051475;28;20229;-94
2022/04/04 07:48:00;;;;;;;14.50;6.70;;;9.60;64.20;;;;;;5049979;28;20204;-92
2022/04/04 07:50:36;;;;;;;10.63;5.93;;;9.70;64.30;;;;;;5049671;28;20173;-92
2022/04/04 07:53:13;;;;;;;12.73;7.10;;;9.70;64.20;;;;;;5041465;28;20236;-91
2022/04/04 07:55:42;;;;;;;10.10;5.43;;;9.70;64.00;;;;;;5034884;28;20205;-91
2022/04/04 07:58:10;;;;;;;15.70;7.23;;;9.70;64.10;;;;;;5021272;28;20712;-93
2022/04/04 08:00:38;;;;;;;15.30;7.00;;;9.80;64.30;;;;;;5026479;28;20240;-94
2022/04/04 08:03:06;;;;;;;22.13;7.20;;;9.80;64.50;;;;;;5033786;28;20197;-95
2022/04/04 08:05:40;;;;;;;13.17;5.90;;;9.80;65.40;;;;;;5032328;28;20951;-93
2022/04/04 08:08:08;;;;;;;17.50;6.20;;;9.80;65.10;;;;;;5032821;28;20299;-93
2022/04/04 08:10:35;;;;;;;15.90;6.97;;;9.80;65.60;;;;;;5031164;28;20197;-91
2022/04/04 08:13:03;;;;;;;23.50;8.10;;;9.80;66.00;;;;;;5027002;28;20229;-95
2022/04/04 08:15:33;;;;;;;20.50;7.20;;;9.80;66.70;;;;;;5024766;28;20328;-93
2022/04/04 08:18:02;;;;;;;17.07;6.80;;;9.80;68.00;;;;;;5024233;28;20213;-94
2022/04/04 08:20:29;;;;;;;13.70;5.67;;;9.80;68.00;;;;;;5030533;28;20208;-94
2022/04/04 08:22:59;;;;;;;15.80;5.83;;;9.80;68.10;;;;;;5027604;28;20721;-92
2022/04/04 08:25:26;;;;;;;20.33;7.20;;;9.80;69.60;;;;;;5029441;28;20216;-94
2022/04/04 08:27:53;;;;;;;22.90;8.23;;;9.80;69.90;;;;;;5029110;28;20279;-93
2022/04/04 08:30:21;;;;;;;25.50;7.57;;;9.70;69.60;;;;;;5024819;28;20205;-94
2022/04/04 08:32:48;;;;;;;21.47;7.83;;;9.80;70.40;;;;;;5029124;28;20209;-94
2022/04/04 08:35:17;;;;;;;12.57;6.10;;;9.70;70.80;;;;;;5023970;28;20205;-93
2022/04/04 08:37:46;;;;;;;17.40;7.10;;;9.70;71.50;;;;;;5031408;28;20220;-94
2022/04/04 08:40:18;;;;;;;12.30;5.60;;;9.70;71.20;;;;;;5031382;28;20740;-94
2022/04/04 08:42:48;;;;;;;13.23;5.83;;;9.70;71.50;;;;;;5030538;28;20204;-93
2022/04/04 08:45:15;;;;;;;17.47;7.27;;;9.70;72.60;;;;;;5028414;28;20251;-93
2022/04/04 08:47:42;;;;;;;17.20;7.10;;;9.70;74.00;;;;;;5034590;28;20229;-92
2022/04/04 08:50:13;;;;;;;12.33;5.23;;;9.70;73.10;;;;;;5037314;28;20212;-92
2022/04/04 08:52:40;;;;;;;11.17;5.43;;;9.70;74.50;;;;;;5032218;28;20247;-93
2022/04/04 08:55:09;;;;;;;10.17;6.07;;;9.60;75.70;;;;;;5032121;28;20248;-94
2022/04/04 08:57:37;;;;;;;11.93;6.03;;;9.60;76.00;;;;;;5029939;28;20216;-92
2022/04/04 09:00:06;;;;;;;15.43;6.17;;;9.60;75.80;;;;;;5030965;28;20236;-94
2022/04/04 09:02:33;;;;;;;17.03;6.17;;;9.60;76.30;;;;;;5028531;28;20209;-95
2022/04/04 09:05:07;;;;;;;13.73;5.30;;;9.50;77.00;;;;;;5028281;28;20669;-93
2022/04/04 09:08:00;;;;;;;10.87;5.67;;;9.50;79.00;;;;;;5029555;28;20235;-92
2022/04/04 09:10:32;;;;;;;20.07;6.63;;;9.50;79.00;;;;;;5030041;28;20205;-92
2022/04/04 09:13:12;;;;;;;17.27;6.40;;;9.50;78.20;;;;;;5021510;28;20247;-93
2022/04/04 09:15:58;;;;;;;13.27;5.30;;;9.60;79.10;;;;;;5024639;28;20200;-94
2022/04/04 09:18:41;;;;;;;17.03;6.73;;;9.50;79.30;;;;;;5027787;28;20199;-93
2022/04/04 09:21:10;;;;;;;12.00;5.03;;;9.50;79.60;;;;;;5029155;28;20237;-93
2022/04/04 09:23:54;;;;;;;19.03;6.53;;;9.50;79.60;;;;;;5023910;28;20201;-94
2022/04/04 09:26:39;;;;;;;18.87;6.43;;;9.60;81.60;;;;;;5010643;28;20229;-92
2022/04/04 09:29:16;;;;;;;12.50;5.27;;;9.50;81.30;;;;;;5027398;28;20295;-91
2022/04/04 09:31:58;;;;;;;21.60;6.63;;;9.60;81.40;;;;;;5027104;28;20860;-92
2022/04/04 09:34:25;;;;;;;12.03;5.40;;;9.50;82.40;;;;;;5026573;28;20681;-92
2022/04/04 09:36:52;;;;;;;12.53;5.30;;;9.60;81.90;;;;;;5028960;28;20296;-94
2022/04/04 09:39:20;;;;;;;13.30;5.07;;;9.50;82.30;;;;;;5031121;28;20200;-93
2022/04/04 09:41:48;;;;;;;15.83;5.57;;;9.50;82.70;;;;;;5030192;28;20706;-94
2022/04/04 09:44:17;;;;;;;11.90;4.83;;;9.60;84.00;;;;;;5031910;28;20266;-91
2022/04/04 09:46:47;;;;;;;10.87;4.70;;;9.60;83.20;;;;;;5029350;28;20231;-91
2022/04/04 09:49:16;;;;;;;12.87;5.47;;;9.60;82.70;;;;;;5029241;28;20196;-89
2022/04/04 09:51:48;;;;;;;13.00;4.80;;;9.60;85.20;;;;;;5028909;28;20875;-95
2022/04/04 09:54:19;;;;;;;12.93;4.80;;;9.50;84.30;;;;;;5029088;28;20204;-91
2022/04/04 09:56:47;;;;;;;16.27;5.40;;;9.60;84.50;;;;;;5030360;28;20555;-93
2022/04/04 09:59:20;;;;;;;14.07;6.03;;;9.60;85.90;;;;;;5027614;28;20610;-92
2022/04/04 10:01:48;;;;;;;12.90;5.63;;;9.60;84.50;;;;;;5028040;28;20205;-93
2022/04/04 10:04:17;;;;;;;13.27;4.90;;;9.60;85.80;;;;;;5029761;28;20239;-92
2022/04/04 10:06:47;;;;;;;10.57;4.20;;;9.60;85.50;;;;;;5028843;28;20256;-90
2022/04/04 10:09:16;;;;;;;14.97;5.77;;;9.60;86.00;;;;;;5031404;28;20208;-96
2022/04/04 10:11:43;;;;;;;13.87;4.80;;;9.60;87.90;;;;;;5030668;28;20320;-90
2022/04/04 10:14:14;;;;;;;17.87;6.00;;;9.70;87.70;;;;;;5019026;28;20255;-92
2022/04/04 10:16:50;;;;;;;15.73;6.00;;;9.70;88.00;;;;;;5026216;28;20624;-94
2022/04/04 10:19:19;;;;;;;12.70;4.73;;;9.70;88.20;;;;;;5026989;28;20253;-95
2022/04/04 10:24:34;;;;;;;9.63;4.23;;;9.70;90.00;;;;;;5024864;28;20217;-96
2022/04/04 10:27:12;;;;;;;9.43;4.63;;;9.70;90.00;;;;;;5030736;28;20260;-96
2022/04/04 10:30:15;;;;;;;19.07;6.13;;;9.70;89.40;;;;;;5030009;28;20204;-92
2022/04/04 10:36:02;;;;;;;14.03;4.80;;;9.80;91.40;;;;;;5028957;28;20558;-96
2022/04/04 10:38:31;;;;;;;11.90;4.73;;;9.80;90.50;;;;;;5036986;28;20221;-96
2022/04/04 10:40:59;;;;;;;14.80;4.90;;;9.80;90.30;;;;;;5037686;28;20577;-96
2022/04/04 10:43:33;;;;;;;13.93;4.70;;;9.80;90.50;;;;;;5036283;28;20651;-95
2022/04/04 10:46:04;;;;;;;15.07;4.83;;;9.80;91.00;;;;;;5034360;28;20926;-94
2022/04/04 10:48:37;;;;;;;8.93;4.23;;;9.80;90.80;;;;;;5035531;28;20248;-93
2022/04/04 10:51:23;;;;;;;13.80;4.47;;;9.80;91.40;;;;;;5039097;28;20319;-96
2022/04/04 10:53:53;;;;;;;13.30;4.27;;;9.80;92.50;;;;;;5047071;28;20662;-93
2022/04/04 10:56:22;;;;;;;20.57;5.33;;;9.80;90.80;;;;;;5045660;28;20200;-95
2022/04/04 10:59:59;;;;;;;9.87;3.80;;;9.80;91.30;;;;;;5048238;28;20201;-96
2022/04/04 11:02:28;;;;;;;10.37;3.40;;;9.90;91.30;;;;;;5045656;28;20189;-94
2022/04/04 11:08:05;;;;;;;7.20;3.67;;;9.90;92.00;;;;;;5027182;28;20224;-95
2022/04/04 11:10:48;;;;;;;15.13;4.67;;;9.90;92.70;;;;;;5043100;28;20205;-94
2022/04/04 11:13:17;;;;;;;7.87;2.87;;;10.00;92.40;;;;;;5031122;28;20229;-91
2022/04/04 11:16:08;;;;;;;8.63;3.20;;;10.00;91.80;;;;;;5050731;28;20236;-93
2022/04/04 11:22:01;;;;;;;7.60;2.97;;;10.10;92.50;;;;;;5308730;22;20252;-93
2022/04/04 11:24:32;;;;;;;7.73;2.90;;;10.10;92.30;;;;;;5038305;28;20213;-92
2022/04/04 11:27:05;;;;;;;11.47;3.10;;;10.10;92.40;;;;;;5027351;28;20218;-93
2022/04/04 11:29:38;;;;;;;8.07;2.97;;;10.20;92.50;;;;;;5017069;28;20217;-95
2022/04/04 11:32:16;;;;;;;6.40;2.60;;;10.20;93.00;;;;;;5018540;28;20213;-92
2022/04/04 11:34:50;;;;;;;7.40;2.60;;;10.20;93.30;;;;;;5019242;28;20186;-95
2022/04/04 11:37:27;;;;;;;7.70;2.67;;;10.20;93.20;;;;;;5018205;28;20240;-94
2022/04/04 11:40:03;;;;;;;6.07;2.77;;;10.30;93.60;;;;;;5030494;28;20221;-94
2022/04/04 11:42:44;;;;;;;7.70;2.47;;;10.30;93.80;;;;;;5024734;28;20221;-95
2022/04/04 11:45:27;;;;;;;8.67;2.97;;;10.40;94.00;;;;;;5038278;28;20265;-94
2022/04/04 11:48:01;;;;;;;6.77;2.47;;;10.40;94.30;;;;;;5035842;28;20238;-95
2022/04/04 11:50:34;;;;;;;6.03;1.97;;;10.40;93.40;;;;;;5035516;28;20232;-93
2022/04/04 11:53:20;;;;;;;6.07;2.63;;;10.50;94.20;;;;;;5034106;28;20196;-93
2022/04/04 11:56:02;;;;;;;4.20;2.13;;;10.50;94.60;;;;;;5026721;28;20279;-93
2022/04/04 11:58:32;;;;;;;5.33;2.23;;;10.50;94.40;;;;;;5018916;28;20282;-92
2022/04/04 12:01:06;;;;;;;3.63;1.80;;;10.60;94.30;;;;;;5016024;28;20213;-94
2022/04/04 12:03:49;;;;;;;5.67;2.20;;;10.60;95.30;;;;;;5017163;28;20205;-94
2022/04/04 12:06:18;;;;;;;4.33;2.07;;;10.60;95.30;;;;;;5016924;28;20206;-93
2022/04/04 12:09:07;;;;;;;8.07;2.47;;;10.70;95.10;;;;;;5016736;28;20208;-93
2022/04/04 12:11:35;;;;;;;6.57;1.97;;;10.70;95.00;;;;;;5023840;28;20236;-93
2022/04/04 12:14:13;;;;;;;4.47;1.93;;;10.70;95.00;;;;;;5023424;28;20197;-94
2022/04/04 12:16:51;;;;;;;5.07;2.10;;;10.80;95.20;;;;;;5026465;28;20201;-96
2022/04/04 12:19:19;;;;;;;5.53;2.13;;;10.80;95.70;;;;;;5032563;28;20202;-96
2022/04/04 12:24:59;;;;;;;5.83;1.90;;;10.80;95.00;;;;;;5035569;28;20228;-96
2022/04/04 12:27:27;;;;;;;6.43;2.13;;;10.90;95.80;;;;;;5033828;28;20265;-96
2022/04/04 12:30:09;;;;;;;7.57;2.43;;;10.90;95.00;;;;;;5032092;28;20205;-96
2022/04/04 12:32:54;;;;;;;5.57;2.10;;;10.90;96.20;;;;;;5033310;28;20213;-94
2022/04/04 12:35:23;;;;;;;6.23;2.13;;;10.90;95.80;;;;;;5029369;28;20212;-91
2022/04/04 12:40:34;;;;;;;7.60;2.47;;;11.00;95.40;;;;;;5024578;28;20205;-94
2022/04/04 12:43:12;;;;;;;6.73;2.53;;;11.00;95.40;;;;;;5030199;28;20229;-96
2022/04/04 12:45:51;;;;;;;4.10;1.47;;;11.00;96.30;;;;;;5026628;28;20224;-93
2022/04/04 12:48:33;;;;;;;6.80;2.60;;;11.00;96.70;;;;;;5024517;28;20310;-95
2022/04/04 12:51:04;;;;;;;6.03;2.23;;;11.00;96.50;;;;;;5023807;28;20205;-92
2022/04/04 12:53:48;;;;;;;5.03;2.33;;;11.10;96.10;;;;;;5015732;28;20209;-92
2022/04/04 12:56:19;;;;;;;6.87;2.40;;;11.10;96.50;;;;;;5017016;28;20217;-92
2022/04/04 12:59:07;;;;;;;4.57;2.10;;;11.10;96.30;;;;;;5023679;28;20256;-94
2022/04/04 13:01:37;;;;;;;8.97;2.90;;;11.10;97.10;;;;;;5028132;28;20205;-95
2022/04/04 13:04:19;;;;;;;7.60;2.87;;;11.10;97.00;;;;;;5027166;28;20192;-96
2022/04/04 13:06:48;;;;;;;4.70;2.07;;;11.10;97.30;;;;;;5008042;28;20203;-95
2022/04/04 13:09:23;;;;;;;6.43;2.53;;;11.10;97.50;;;;;;5010115;28;20263;-95
2022/04/04 13:12:05;;;;;;;7.13;2.43;;;11.10;96.90;;;;;;5025924;28;20225;-95
2022/04/04 13:14:47;;;;;;;4.93;1.67;;;11.10;97.30;;;;;;5029802;28;20263;-93
2022/04/04 13:17:37;;;;;;;5.23;1.90;;;11.20;97.00;;;;;;5031987;28;20253;-92
2022/04/04 13:20:12;;;;;;;5.97;1.93;;;11.20;97.40;;;;;;5026723;28;20241;-92
2022/04/04 13:22:43;;;;;;;6.90;2.50;;;11.20;97.00;;;;;;5025915;28;20293;-93
2022/04/04 13:25:12;;;;;;;4.73;1.87;;;11.20;96.80;;;;;;5020631;28;20785;-92
2022/04/04 13:28:17;;;;;;;5.60;2.27;;;11.30;96.50;;;;;;5021036;28;20315;-95
2022/04/04 13:31:19;;;;;;;7.37;2.80;;;11.30;97.20;;;;;;5029243;28;20264;-95
2022/04/04 13:33:46;;;;;;;8.77;2.63;;;11.30;96.80;;;;;;5028903;28;20213;-92
2022/04/04 13:36:15;;;;;;;6.37;2.90;;;11.40;96.00;;;;;;5031164;28;20201;-95